createdAt,value
2023-02-22T00:01:25.338Z,8.65
2023-02-22T00:03:51.906Z,8.62
2023-02-22T00:06:21.345Z,8.61
2023-02-22T00:08:48.863Z,8.60
2023-02-22T00:11:16.441Z,8.58
2023-02-22T00:13:43.111Z,8.55
2023-02-22T00:16:09.809Z,8.53
2023-02-22T00:18:36.308Z,8.50
2023-02-22T00:21:02.907Z,8.47
2023-02-22T00:23:31.186Z,8.44
2023-02-22T00:25:59.452Z,8.39
2023-02-22T00:28:26.442Z,8.35
2023-02-22T00:30:53.350Z,8.31
2023-02-22T00:33:19.843Z,8.25
2023-02-22T00:35:46.343Z,8.18
2023-02-22T00:38:15.243Z,8.13
2023-02-22T00:40:42.211Z,8.08
2023-02-22T00:43:09.128Z,8.05
2023-02-22T00:45:37.242Z,8.02
2023-02-22T00:48:06.187Z,7.98
2023-02-22T00:50:33.173Z,7.95
2023-02-22T00:53:01.626Z,7.90
2023-02-22T00:55:31.261Z,7.87
2023-02-22T00:57:58.515Z,7.81
2023-02-22T01:00:34.406Z,7.76
2023-02-22T01:03:01.221Z,7.67
2023-02-22T01:05:29.917Z,7.61
2023-02-22T01:07:57.892Z,7.56
2023-02-22T01:10:26.441Z,7.53
2023-02-22T01:12:53.861Z,7.49
2023-02-22T01:15:22.654Z,7.45
2023-02-22T01:17:51.312Z,7.40
2023-02-22T01:20:18.557Z,7.37
2023-02-22T01:22:48.001Z,7.34
2023-02-22T01:25:20.570Z,7.33
2023-02-22T01:27:47.219Z,7.32
2023-02-22T01:30:15.067Z,7.31
2023-02-22T01:32:42.480Z,7.29
2023-02-22T01:35:13.801Z,7.27
2023-02-22T01:37:40.961Z,7.26
2023-02-22T01:40:14.489Z,7.24
2023-02-22T01:42:40.955Z,7.22
2023-02-22T01:45:32.205Z,7.20
2023-02-22T01:48:12.846Z,7.19
2023-02-22T01:50:43.882Z,7.17
2023-02-22T01:53:12.988Z,7.12
2023-02-22T01:55:39.826Z,7.09
2023-02-22T01:58:07.940Z,7.05
2023-02-22T02:00:34.480Z,7.00
2023-02-22T02:03:31.867Z,6.96
2023-02-22T02:06:02.737Z,6.89
2023-02-22T02:08:33.245Z,6.82
2023-02-22T02:11:01.658Z,6.75
2023-02-22T02:13:28.600Z,6.68
2023-02-22T02:15:56.205Z,6.64
2023-02-22T02:18:24.362Z,6.61
2023-02-22T02:20:53.550Z,6.58
2023-02-22T02:24:02.299Z,6.56
2023-02-22T02:26:53.930Z,6.56
2023-02-22T02:29:50.986Z,6.56
2023-02-22T02:32:26.459Z,6.55
2023-02-22T02:34:58.838Z,6.53
2023-02-22T02:37:37.960Z,6.52
2023-02-22T02:40:29.594Z,6.52
2023-02-22T02:43:17.515Z,6.50
2023-02-22T02:45:48.066Z,6.49
2023-02-22T02:48:17.340Z,6.51
2023-02-22T02:50:58.312Z,6.51
2023-02-22T02:53:31.496Z,6.50
2023-02-22T02:56:01.842Z,6.48
2023-02-22T02:58:30.138Z,6.46
2023-02-22T03:01:00.056Z,6.43
2023-02-22T03:03:44.990Z,6.39
2023-02-22T03:06:46.888Z,6.36
2023-02-22T03:09:27.201Z,6.33
2023-02-22T03:12:28.096Z,6.29
2023-02-22T03:15:00.371Z,6.22
2023-02-22T03:18:13.389Z,6.15
2023-02-22T03:20:54.996Z,6.09
2023-02-22T03:23:38.128Z,6.06
2023-02-22T03:26:09.856Z,6.02
2023-02-22T03:28:37.587Z,5.98
2023-02-22T03:31:09.223Z,5.94
2023-02-22T03:33:46.485Z,5.88
2023-02-22T03:36:25.003Z,5.82
2023-02-22T03:38:53.488Z,5.77
2023-02-22T03:41:22.878Z,5.74
2023-02-22T03:43:53.701Z,5.72
2023-02-22T03:46:21.022Z,5.72
2023-02-22T03:48:47.487Z,5.72
2023-02-22T03:51:17.043Z,5.71
2023-02-22T03:53:44.071Z,5.70
2023-02-22T03:56:14.051Z,5.70
2023-02-22T03:58:42.745Z,5.71
2023-02-22T04:01:09.799Z,5.72
2023-02-22T04:03:36.491Z,5.73
2023-02-22T04:06:03.061Z,5.75
2023-02-22T04:08:29.547Z,5.76
2023-02-22T04:10:56.042Z,5.77
2023-02-22T04:13:22.499Z,5.79
2023-02-22T04:15:49.023Z,5.78
2023-02-22T04:18:15.550Z,5.79
2023-02-22T04:20:42.025Z,5.81
2023-02-22T04:23:08.473Z,5.81
2023-02-22T04:25:34.940Z,5.81
2023-02-22T04:28:01.701Z,5.79
2023-02-22T04:30:28.447Z,5.76
2023-02-22T04:32:54.992Z,5.75
2023-02-22T04:35:21.883Z,5.71
2023-02-22T04:37:48.431Z,5.66
2023-02-22T04:40:17.368Z,5.61
2023-02-22T04:42:43.867Z,5.57
2023-02-22T04:45:10.680Z,5.54
2023-02-22T04:47:37.456Z,5.52
2023-02-22T04:50:06.575Z,5.47
2023-02-22T04:52:33.059Z,5.44
2023-02-22T04:54:59.597Z,5.41
2023-02-22T04:57:26.102Z,5.39
2023-02-22T04:59:53.099Z,5.36
2023-02-22T05:02:19.867Z,5.33
2023-02-22T05:04:46.415Z,5.29
2023-02-22T05:07:13.070Z,5.26
2023-02-22T05:09:39.561Z,5.24
2023-02-22T05:12:06.332Z,5.23
2023-02-22T05:14:33.273Z,5.22
2023-02-22T05:17:00.374Z,5.21
2023-02-22T05:19:26.862Z,5.19
2023-02-22T05:21:53.596Z,5.15
2023-02-22T05:24:20.092Z,5.11
2023-02-22T05:26:46.747Z,5.09
2023-02-22T05:29:14.140Z,5.08
2023-02-22T05:31:40.804Z,5.07
2023-02-22T05:34:07.609Z,5.06
2023-02-22T05:36:34.119Z,5.05
2023-02-22T05:39:00.625Z,5.01
2023-02-22T05:41:28.643Z,4.98
2023-02-22T05:43:55.149Z,4.94
2023-02-22T05:46:21.780Z,4.91
2023-02-22T05:48:48.317Z,4.87
2023-02-22T05:51:15.078Z,4.84
2023-02-22T05:53:41.620Z,4.81
2023-02-22T05:56:08.382Z,4.80
2023-02-22T05:58:34.849Z,4.78
2023-02-22T06:01:03.176Z,4.76
2023-02-22T06:03:30.008Z,4.75
2023-02-22T06:05:56.508Z,4.74
2023-02-22T06:08:23.011Z,4.74
2023-02-22T06:10:49.492Z,4.74
2023-02-22T06:13:15.983Z,4.77
2023-02-22T06:15:42.539Z,4.80
2023-02-22T06:18:09.154Z,4.85
2023-02-22T06:20:35.629Z,4.89
2023-02-22T06:23:02.278Z,4.95
2023-02-22T06:25:31.276Z,4.98
2023-02-22T06:27:58.930Z,5.06
2023-02-22T06:30:26.956Z,5.11
2023-02-22T06:32:53.544Z,5.16
2023-02-22T06:35:20.089Z,5.23
2023-02-22T06:37:46.576Z,5.31
2023-02-22T06:40:14.010Z,5.39
2023-02-22T06:42:41.053Z,5.46
2023-02-22T06:45:08.546Z,5.56
2023-02-22T06:47:41.615Z,5.65
2023-02-22T06:50:19.601Z,5.74
2023-02-22T06:52:46.376Z,5.88
2023-02-22T06:55:17.318Z,6.00
2023-02-22T06:57:43.869Z,6.16
2023-02-22T07:00:11.025Z,6.31
2023-02-22T07:02:37.500Z,6.45
2023-02-22T07:05:04.196Z,6.59
2023-02-22T07:07:30.699Z,6.78
2023-02-22T07:09:57.190Z,6.98
2023-02-22T07:12:23.689Z,7.18
2023-02-22T07:14:50.195Z,7.39
2023-02-22T07:17:16.715Z,7.59
2023-02-22T07:19:43.197Z,7.79
2023-02-22T07:22:09.702Z,7.98
2023-02-22T07:24:36.241Z,8.16
2023-02-22T07:27:02.805Z,8.34
2023-02-22T07:29:29.352Z,8.51
2023-02-22T07:31:56.070Z,8.68
2023-02-22T07:34:22.638Z,8.85
2023-02-22T07:36:49.145Z,9.00
2023-02-22T07:39:15.630Z,9.12
2023-02-22T07:41:42.190Z,9.21
2023-02-22T07:44:08.670Z,9.30
2023-02-22T07:46:35.194Z,9.43
2023-02-22T07:49:01.982Z,9.60
2023-02-22T07:51:28.471Z,9.80
2023-02-22T07:53:54.995Z,10.04
2023-02-22T07:56:21.561Z,10.30
2023-02-22T07:58:48.343Z,10.48
2023-02-22T08:01:15.111Z,10.57
2023-02-22T08:03:41.828Z,10.60
2023-02-22T08:06:08.531Z,10.72
2023-02-22T08:08:35.263Z,10.95
2023-02-22T08:11:02.440Z,11.19
2023-02-22T08:13:28.963Z,11.41
2023-02-22T08:15:55.490Z,11.61
2023-02-22T08:18:23.285Z,11.75
2023-02-22T08:20:51.451Z,11.89
2023-02-22T08:23:19.530Z,11.97
2023-02-22T08:25:46.001Z,12.06
2023-02-22T08:28:15.626Z,12.17
2023-02-22T08:30:42.871Z,12.27
2023-02-22T08:33:10.542Z,12.38
2023-02-22T08:35:37.110Z,12.50
2023-02-22T08:38:05.975Z,12.68
2023-02-22T08:40:37.131Z,12.94
2023-02-22T08:43:04.372Z,13.23
2023-02-22T08:45:31.120Z,13.51
2023-02-22T08:47:59.063Z,13.65
2023-02-22T08:50:31.224Z,13.73
2023-02-22T08:53:00.563Z,13.76
2023-02-22T08:55:31.408Z,13.76
2023-02-22T08:57:59.258Z,13.78
2023-02-22T09:00:25.766Z,13.86
2023-02-22T09:02:52.842Z,14.03
2023-02-22T09:05:19.880Z,14.31
2023-02-22T09:07:46.441Z,14.51
2023-02-22T09:10:25.241Z,14.78
2023-02-22T09:12:52.428Z,15.07
2023-02-22T09:15:19.060Z,15.13
2023-02-22T09:17:45.748Z,15.24
2023-02-22T09:20:12.790Z,15.67
2023-02-22T09:22:40.015Z,16.40
2023-02-22T09:25:16.368Z,16.53
2023-02-22T09:27:43.559Z,16.51
2023-02-22T09:30:26.729Z,16.55
2023-02-22T09:32:57.639Z,16.48
2023-02-22T09:35:24.237Z,16.30
2023-02-22T09:37:50.720Z,16.12
2023-02-22T09:40:19.268Z,16.13
2023-02-22T09:42:56.577Z,16.12
2023-02-22T09:45:31.106Z,16.04
2023-02-22T09:48:15.257Z,15.84
2023-02-22T09:50:51.562Z,15.59
2023-02-22T09:53:21.094Z,15.37
2023-02-22T09:55:54.304Z,15.24
2023-02-22T09:58:28.637Z,15.17
2023-02-22T10:01:00.900Z,15.17
2023-02-22T10:03:40.448Z,15.30
2023-02-22T10:06:16.903Z,15.53
2023-02-22T10:08:45.180Z,15.95
2023-02-22T10:11:20.123Z,16.23
2023-02-22T10:13:55.727Z,16.32
2023-02-22T10:16:28.028Z,16.50
2023-02-22T10:19:12.414Z,16.77
2023-02-22T10:21:49.431Z,16.84
2023-02-22T10:24:38.349Z,16.76
2023-02-22T10:27:07.552Z,16.73
2023-02-22T10:29:39.966Z,16.59
2023-02-22T10:32:21.828Z,16.36
2023-02-22T10:34:50.585Z,16.05
2023-02-22T10:37:32.624Z,15.86
2023-02-22T10:40:12.101Z,15.66
2023-02-22T10:42:38.817Z,15.48
2023-02-22T10:45:18.972Z,15.32
2023-02-22T10:47:45.968Z,15.18
2023-02-22T10:50:14.907Z,15.08
2023-02-22T10:52:41.326Z,15.04
2023-02-22T10:55:15.917Z,15.04
2023-02-22T10:57:46.398Z,15.15
2023-02-22T11:00:30.281Z,15.25
2023-02-22T11:02:59.498Z,15.27
2023-02-22T11:05:31.940Z,15.22
2023-02-22T11:08:17.015Z,15.06
2023-02-22T11:10:44.031Z,14.92
2023-02-22T11:13:40.087Z,14.87
2023-02-22T11:16:26.962Z,14.78
2023-02-22T11:19:17.930Z,14.68
2023-02-22T11:21:44.816Z,14.50
2023-02-22T11:24:14.248Z,14.42
2023-02-22T11:26:48.017Z,14.31
2023-02-22T11:29:26.676Z,14.17
2023-02-22T11:31:54.831Z,14.06
2023-02-22T11:34:37.201Z,14.02
2023-02-22T11:37:16.018Z,13.99
2023-02-22T11:39:42.663Z,13.94
2023-02-22T11:42:26.607Z,13.88
2023-02-22T11:45:10.098Z,13.82
2023-02-22T11:47:48.134Z,13.77
2023-02-22T11:50:42.947Z,13.70
2023-02-22T11:53:26.577Z,13.64
2023-02-22T11:56:18.773Z,13.54
2023-02-22T11:59:07.168Z,13.46
2023-02-22T12:01:59.790Z,13.40
2023-02-22T12:04:50.262Z,13.32
2023-02-22T12:07:41.738Z,13.20
2023-02-22T12:10:33.496Z,13.15
2023-02-22T12:13:18.786Z,13.17
2023-02-22T12:16:17.899Z,13.17
2023-02-22T12:19:10.530Z,13.15
2023-02-22T12:21:40.804Z,13.06
2023-02-22T12:24:16.722Z,13.01
2023-02-22T12:26:55.440Z,12.98
2023-02-22T12:29:37.617Z,12.94
2023-02-22T12:32:17.494Z,12.91
2023-02-22T12:34:52.608Z,12.92
2023-02-22T12:37:24.853Z,12.92
2023-02-22T12:40:00.228Z,12.91
2023-02-22T12:42:52.680Z,12.90
2023-02-22T12:45:48.466Z,12.97
2023-02-22T12:48:34.657Z,13.09
2023-02-22T12:51:15.155Z,13.18
2023-02-22T12:53:49.881Z,13.24
2023-02-22T12:56:27.965Z,13.25
2023-02-22T12:59:14.343Z,13.22
2023-02-22T13:01:46.415Z,13.22
2023-02-22T13:04:20.616Z,13.23
2023-02-22T13:06:54.241Z,13.26
2023-02-22T13:10:21.793Z,13.32
2023-02-22T13:13:04.609Z,13.34
2023-02-22T13:15:56.400Z,13.41
2023-02-22T13:18:25.907Z,13.48
2023-02-22T13:21:05.530Z,13.51
2023-02-22T13:23:34.781Z,13.51
2023-02-22T13:26:16.689Z,13.49
2023-02-22T13:28:58.817Z,13.50
2023-02-22T13:31:25.437Z,13.48
2023-02-22T13:34:18.034Z,13.44
2023-02-22T13:37:07.176Z,13.39
2023-02-22T13:39:42.440Z,13.34
2023-02-22T13:42:47.545Z,13.33
2023-02-22T13:45:38.757Z,13.31
2023-02-22T13:48:36.981Z,13.23
2023-02-22T13:51:06.179Z,13.16
2023-02-22T13:53:52.799Z,13.12
2023-02-22T13:56:20.209Z,13.06
2023-02-22T13:58:54.532Z,13.04
2023-02-22T14:01:43.448Z,13.02
2023-02-22T14:04:28.414Z,12.99
2023-02-22T14:06:59.571Z,12.94
2023-02-22T14:09:50.807Z,12.90
2023-02-22T14:12:29.556Z,12.88
2023-02-22T14:15:26.458Z,12.85
2023-02-22T14:18:05.242Z,12.79
2023-02-22T14:20:40.298Z,12.75
2023-02-22T14:23:40.630Z,12.71
2023-02-22T14:26:19.558Z,12.68
2023-02-22T14:28:50.440Z,12.67
2023-02-22T14:31:35.551Z,12.65
2023-02-22T14:34:13.312Z,12.63
2023-02-22T14:36:55.978Z,12.60
2023-02-22T14:39:37.486Z,12.59
2023-02-22T14:42:26.755Z,12.58
2023-02-22T14:45:17.596Z,12.58
2023-02-22T14:47:49.923Z,12.55
2023-02-22T14:50:25.064Z,12.54
2023-02-22T14:53:05.177Z,12.53
2023-02-22T14:55:37.377Z,12.55
2023-02-22T14:58:10.089Z,12.56
2023-02-22T15:00:38.428Z,12.53
2023-02-22T15:03:04.963Z,12.49
2023-02-22T15:05:36.999Z,12.45
2023-02-22T15:08:06.731Z,12.42
2023-02-22T15:10:36.339Z,12.40
2023-02-22T15:13:06.765Z,12.40
2023-02-22T15:15:33.388Z,12.38
2023-02-22T15:18:00.141Z,12.38
2023-02-22T15:20:28.163Z,12.37
2023-02-22T15:22:59.735Z,12.36
2023-02-22T15:25:29.208Z,12.33
2023-02-22T15:28:01.698Z,12.30
2023-02-22T15:30:31.212Z,12.30
2023-02-22T15:33:09.766Z,12.28
2023-02-22T15:35:36.650Z,12.25
2023-02-22T15:38:06.647Z,12.23
2023-02-22T15:40:34.861Z,12.20
2023-02-22T15:43:06.775Z,12.16
2023-02-22T15:45:33.381Z,12.10
2023-02-22T15:48:00.715Z,12.07
2023-02-22T15:50:34.956Z,12.05
2023-02-22T15:53:02.706Z,12.01
2023-02-22T15:55:31.941Z,12.01
2023-02-22T15:58:01.904Z,11.99
2023-02-22T16:00:34.640Z,11.98
2023-02-22T16:03:02.760Z,11.95
2023-02-22T16:05:39.136Z,11.91
2023-02-22T16:08:40.178Z,11.88
2023-02-22T16:11:34.252Z,11.84
2023-02-22T16:14:06.477Z,11.81
2023-02-22T16:16:38.491Z,11.80
2023-02-22T16:19:28.822Z,11.77
2023-02-22T16:21:58.518Z,11.74
2023-02-22T16:24:33.580Z,11.71
2023-02-22T16:27:15.139Z,11.68
2023-02-22T16:29:42.088Z,11.64
2023-02-22T16:32:09.248Z,11.60
2023-02-22T16:34:35.942Z,11.57
2023-02-22T16:37:02.497Z,11.54
2023-02-22T16:39:31.536Z,11.51
2023-02-22T16:42:00.286Z,11.47
2023-02-22T16:44:27.845Z,11.43
2023-02-22T16:46:57.139Z,11.40
2023-02-22T16:49:24.349Z,11.35
2023-02-22T16:51:54.094Z,11.30
2023-02-22T16:54:33.575Z,11.26
2023-02-22T16:57:01.989Z,11.20
2023-02-22T16:59:36.014Z,11.14
2023-02-22T17:02:02.549Z,11.09
2023-02-22T17:04:29.047Z,11.04
2023-02-22T17:06:55.635Z,11.01
2023-02-22T17:09:22.148Z,10.98
2023-02-22T17:11:51.597Z,10.95
2023-02-22T17:14:21.544Z,10.93
2023-02-22T17:16:48.002Z,10.91
2023-02-22T17:19:21.186Z,10.88
2023-02-22T17:21:48.793Z,10.84
2023-02-22T17:24:19.353Z,10.78
2023-02-22T17:26:46.281Z,10.72
2023-02-22T17:29:12.760Z,10.67
2023-02-22T17:31:39.429Z,10.62
2023-02-22T17:34:06.340Z,10.56
2023-02-22T17:36:34.230Z,10.51
2023-02-22T17:39:00.710Z,10.46
2023-02-22T17:41:27.221Z,10.39
2023-02-22T17:43:53.749Z,10.33
2023-02-22T17:46:20.991Z,10.26
2023-02-22T17:48:47.729Z,10.20
2023-02-22T17:51:14.327Z,10.11
2023-02-22T17:53:40.864Z,10.05
2023-02-22T17:56:10.372Z,10.00
2023-02-22T17:58:37.432Z,9.94
2023-02-22T18:01:04.256Z,9.87
2023-02-22T18:03:31.131Z,9.80
2023-02-22T18:06:00.510Z,9.76
2023-02-22T18:08:29.117Z,9.70
2023-02-22T18:10:56.129Z,9.64
2023-02-22T18:13:24.228Z,9.60
2023-02-22T18:15:51.114Z,9.57
2023-02-22T18:18:18.480Z,9.55
2023-02-22T18:20:46.948Z,9.53
2023-02-22T18:23:20.922Z,9.50
2023-02-22T18:26:03.779Z,9.47
2023-02-22T18:28:35.388Z,9.40
2023-02-22T18:31:07.619Z,9.35
2023-02-22T18:33:43.525Z,9.31
2023-02-22T18:36:11.241Z,9.29
2023-02-22T18:38:39.038Z,9.27
2023-02-22T18:41:06.718Z,9.27
2023-02-22T18:43:33.861Z,9.26
2023-02-22T18:46:14.618Z,9.25
2023-02-22T18:48:41.659Z,9.22
2023-02-22T18:51:11.196Z,9.19
2023-02-22T18:53:39.675Z,9.18
2023-02-22T18:56:08.792Z,9.14
2023-02-22T18:58:36.065Z,9.08
2023-02-22T19:01:03.696Z,9.03
2023-02-22T19:03:30.769Z,9.00
2023-02-22T19:06:05.882Z,8.97
2023-02-22T19:08:32.443Z,8.94
2023-02-22T19:11:04.014Z,8.93
2023-02-22T19:13:31.531Z,8.91
2023-02-22T19:15:58.379Z,8.90
2023-02-22T19:18:24.930Z,8.90
2023-02-22T19:20:58.940Z,8.89
2023-02-22T19:23:25.512Z,8.87
2023-02-22T19:25:52.132Z,8.85
2023-02-22T19:28:18.915Z,8.83
2023-02-22T19:30:45.745Z,8.83
2023-02-22T19:33:12.556Z,8.83
2023-02-22T19:35:39.005Z,8.83
2023-02-22T19:38:05.470Z,8.81
2023-02-22T19:40:31.977Z,8.81
2023-02-22T19:42:58.441Z,8.78
2023-02-22T19:45:25.119Z,8.77
2023-02-22T19:47:55.427Z,8.77
2023-02-22T19:50:22.617Z,8.77
2023-02-22T19:52:49.157Z,8.76
2023-02-22T19:55:15.735Z,8.76
2023-02-22T19:57:44.207Z,8.77
2023-02-22T20:00:11.403Z,8.77
2023-02-22T20:02:41.543Z,8.75
2023-02-22T20:05:09.796Z,8.74
2023-02-22T20:07:37.369Z,8.74
2023-02-22T20:10:05.171Z,8.73
2023-02-22T20:12:31.784Z,8.73
2023-02-22T20:14:58.238Z,8.73
2023-02-22T20:17:26.104Z,8.73
2023-02-22T20:19:52.983Z,8.73
2023-02-22T20:22:21.148Z,8.73
2023-02-22T20:24:47.753Z,8.72
2023-02-22T20:27:14.445Z,8.72
2023-02-22T20:29:41.258Z,8.72
2023-02-22T20:32:11.955Z,8.72
2023-02-22T20:34:38.568Z,8.72
2023-02-22T20:37:05.048Z,8.72
2023-02-22T20:39:31.957Z,8.73
2023-02-22T20:41:58.547Z,8.74
2023-02-22T20:44:25.096Z,8.73
2023-02-22T20:46:51.631Z,8.71
2023-02-22T20:49:20.216Z,8.71
2023-02-22T20:51:47.892Z,8.70
2023-02-22T20:54:15.481Z,8.71
2023-02-22T20:56:44.821Z,8.68
2023-02-22T20:59:14.537Z,8.68
2023-02-22T21:01:41.633Z,8.68
2023-02-22T21:04:09.831Z,8.68
2023-02-22T21:06:37.478Z,8.68
2023-02-22T21:09:05.568Z,8.68
2023-02-22T21:11:32.107Z,8.68
2023-02-22T21:13:59.996Z,8.67
2023-02-22T21:16:32.460Z,8.66
2023-02-22T21:19:01.130Z,8.66
2023-02-22T21:21:28.700Z,8.66
2023-02-22T21:23:57.199Z,8.66
2023-02-22T21:26:26.069Z,8.66
2023-02-22T21:28:53.660Z,8.65
2023-02-22T21:31:23.441Z,8.64
2023-02-22T21:33:52.538Z,8.60
2023-02-22T21:36:20.177Z,8.58
2023-02-22T21:38:48.596Z,8.57
2023-02-22T21:41:16.932Z,8.56
2023-02-22T21:43:44.117Z,8.56
2023-02-22T21:46:10.927Z,8.54
2023-02-22T21:48:38.988Z,8.53
2023-02-22T21:51:10.550Z,8.53
2023-02-22T21:53:37.026Z,8.54
2023-02-22T21:56:06.898Z,8.55
2023-02-22T21:58:33.419Z,8.55
2023-02-22T22:01:06.896Z,8.54
2023-02-22T22:03:33.956Z,8.52
2023-02-22T22:06:00.454Z,8.51
2023-02-22T22:08:29.806Z,8.51
2023-02-22T22:10:56.273Z,8.51
2023-02-22T22:13:23.419Z,8.52
2023-02-22T22:15:50.169Z,8.51
2023-02-22T22:18:17.128Z,8.48
2023-02-22T22:20:43.765Z,8.47
2023-02-22T22:23:11.723Z,8.46
2023-02-22T22:25:38.760Z,8.45
2023-02-22T22:28:06.566Z,8.44
2023-02-22T22:30:35.986Z,8.43
2023-02-22T22:33:06.404Z,8.42
2023-02-22T22:35:33.391Z,8.42
2023-02-22T22:38:00.521Z,8.41
2023-02-22T22:40:28.003Z,8.41
2023-02-22T22:42:54.480Z,8.40
2023-02-22T22:45:21.160Z,8.40
2023-02-22T22:47:47.626Z,8.39
2023-02-22T22:50:16.107Z,8.37
2023-02-22T22:52:42.537Z,8.36
2023-02-22T22:55:09.155Z,8.34
2023-02-22T22:57:36.305Z,8.33
2023-02-22T23:00:02.798Z,8.29
2023-02-22T23:02:29.307Z,8.26
2023-02-22T23:04:55.826Z,8.24
2023-02-22T23:07:22.400Z,8.22
2023-02-22T23:09:48.853Z,8.20
2023-02-22T23:12:15.389Z,8.19
2023-02-22T23:14:43.029Z,8.18
2023-02-22T23:17:10.639Z,8.16
2023-02-22T23:19:37.221Z,8.14
2023-02-22T23:22:05.554Z,8.12
2023-02-22T23:24:33.362Z,8.11
2023-02-22T23:26:59.861Z,8.09
2023-02-22T23:29:27.458Z,8.10
2023-02-22T23:31:54.074Z,8.09
2023-02-22T23:34:22.984Z,8.09
2023-02-22T23:36:51.056Z,8.08
2023-02-22T23:39:19.180Z,8.06
2023-02-22T23:41:45.873Z,8.03
2023-02-22T23:44:12.393Z,8.00
2023-02-22T23:46:39.277Z,7.97
2023-02-22T23:49:05.771Z,7.97
2023-02-22T23:51:32.618Z,7.95
2023-02-22T23:53:59.107Z,7.94
2023-02-22T23:56:27.531Z,7.93
2023-02-22T23:58:55.116Z,7.93
